• Join FlightAware (Why Join?)
  • Login
  • US Flag 
11:42PM EDT


 

Airport Tracker/Info


-or-


 

Live Flight TrackerFlight Track Log ✈ N785JP ✈ 09-May-2013 ✈ KBTP - KSYR

Flight Track Log - Related Links

Times and Time Zones

All times are in EDT time to prevent confusion due to time zone crossing. See the N785JP flight status page for this flight to view local times or setup timezone preferences in your user account.

Time Position Orientation Groundspeed Altitude Reporting Facility
EDT Latitude Longitude Course Direction KTS MPH feet Rate Location/Type
02:58PM 40.8264 -79.9547 37° Northeast 157 181 4,600  Level Cleveland Center
02:59PM 40.8511 -79.9078 55° Northeast 157 181 5,800 1,200 Climbing Cleveland Center
03:00PM 40.8822 -79.8664 45° Northeast 157 181 7,100 1,200 Climbing Cleveland Center
03:01PM 40.9047 -79.8111 62° Northeast 162 186 8,200 1,140 Climbing Cleveland Center
03:02PM 40.9125 -79.7450 81° East 167 192 9,400 1,200 Climbing Cleveland Center
03:03PM 40.9274 -80.0726 37° Northeast  Level FlightAware Approximate
03:03PM 40.9350 -79.6925 60° Northeast 167 192 10,600  Level Cleveland Center
03:04PM 40.9703 -79.6453 45° Northeast 167 192 11,900 1,200 Climbing Cleveland Center
03:05PM 41.0031 -79.5953 49° Northeast 172 198 13,100 1,260 Climbing Cleveland Center
03:06PM 41.0381 -79.5481 45° Northeast 178 205 14,500 1,200 Climbing Cleveland Center
03:07PM 41.0711 -79.5033 46° Northeast 173 199 15,500 900 Climbing Cleveland Center
03:08PM 41.1081 -79.4561 44° Northeast 173 199 16,400 660 Climbing Cleveland Center
03:09PM 41.1431 -79.4003 50° Northeast 178 205 16,900 240 Climbing Cleveland Center
03:10PM 41.1842 -79.3417 47° Northeast 184 212 16,900  Level Cleveland Center
03:11PM 41.2250 -79.2828 47° Northeast 204 235 16,900  Level Cleveland Center
03:12PM 41.2681 -79.2211 47° Northeast 215 247 17,000  Climbing Cleveland Center
03:13PM 41.3092 -79.1622 47° Northeast 215 247 17,000  Level Cleveland Center
03:14PM 41.3542 -79.1033 44° Northeast 215 247 17,000  Level Cleveland Center
03:15PM 41.3953 -79.0414 48° Northeast 215 247 17,000  Level Cleveland Center
03:16PM 41.4381 -78.9850 45° Northeast 220 253 17,000  Level Cleveland Center
03:17PM 41.4728 -78.9342 48° Northeast 220 253 17,000 -60 Level Cleveland Center
03:18PM 41.5197 -78.8664 47° Northeast 220 253 16,900 -60 Descending Cleveland Center
03:19PM 41.5628 -78.8069 46° Northeast 220 253 16,900  Level Cleveland Center
03:20PM 41.6056 -78.7475 46° Northeast 220 253 16,900  Level Cleveland Center
03:21PM 41.6503 -78.6853 46° Northeast 220 253 16,900  Level Cleveland Center
03:22PM 41.6911 -78.6283 46° Northeast 220 253 16,900  Level Cleveland Center
03:23PM 41.7358 -78.5658 46° Northeast 220 253 16,900  Level Cleveland Center
03:24PM 41.7767 -78.5061 47° Northeast 220 253 16,900  Level Cleveland Center
03:25PM 41.8214 -78.4461 45° Northeast 220 253 17,000  Climbing Cleveland Center
03:26PM 41.8639 -78.3861 46° Northeast 220 253 16,900  Descending Cleveland Center
03:27PM 41.9086 -78.3231 46° Northeast 220 253 17,000  Climbing Cleveland Center
03:28PM 41.9492 -78.2631 48° Northeast 220 253 16,900 -60 Descending Cleveland Center
03:29PM 41.9917 -78.2000 48° Northeast 220 253 16,900  Level Cleveland Center
03:30PM 42.0361 -78.1397 45° Northeast 220 253 16,900  Level Cleveland Center
03:31PM 42.0764 -78.0767 49° Northeast 220 253 16,900  Level Cleveland Center
03:32PM 42.1189 -78.0161 47° Northeast 220 253 16,900  Level Cleveland Center
03:33PM 42.1614 -77.9556 47° Northeast 220 253 16,900  Level Cleveland Center
03:34PM 42.2058 -77.8919 47° Northeast 220 253 17,000  Climbing Cleveland Center
03:35PM 42.2481 -77.8314 47° Northeast 220 253 16,900 -60 Descending Cleveland Center
03:36PM 42.2903 -77.7678 48° Northeast 220 253 16,900  Level Cleveland Center
03:37PM 42.3325 -77.7069 47° Northeast 220 253 17,000  Climbing Cleveland Center
03:38PM 42.3769 -77.6458 45° Northeast 220 253 17,000  Level Cleveland Center
03:39PM 42.4192 -77.5819 48° Northeast 227 261 17,000  Level Cleveland Center
03:40PM 42.4614 -77.5208 47° Northeast 221 254 17,000  Level Cleveland Center
03:41PM 42.5075 -77.4539 47° Northeast 221 254 17,000  Level Cleveland Center
03:42PM 42.5475 -77.3928 48° Northeast 221 254 17,000  Level Cleveland Center
03:43PM 42.5917 -77.3339 44° Northeast 221 254 17,000  Level Cleveland Center
03:44PM 42.6403 -77.2892 34° Northeast 216 249 17,000  Level Cleveland Center
03:45PM 42.6847 -77.2331 43° Northeast 216 249 17,000  Level Cleveland Center
03:46PM 42.7289 -77.1772 43° Northeast 216 249 17,000  Level Cleveland Center
03:47PM 42.7731 -77.1181 45° Northeast 216 249 17,000  Level Cleveland Center
03:47PM 42.7797 -77.1086 46° Northeast 214 246 17,000 -960 Level Boston Center
03:48PM 42.8303 -77.0472 42° Northeast 228 262 15,800 -1,320 Descending Boston Center
03:49PM 42.8717 -77.0019 39° Northeast 237 273 14,900 -1,140 Descending Boston Center
03:49PM 42.8933 -76.9839 31° Northeast 226 260 14,500 -1,200 Descending Boston Center
03:50PM 42.9258 -76.9494 38° Northeast 243 280 13,700 -1,200 Descending Boston Center
03:50PM 42.9453 -76.9339 30° Northeast 231 266 13,300 -1,200 Descending Boston Center
03:51PM 42.9781 -76.8992 38° Northeast 237 273 12,500 -1,200 Descending Boston Center
03:51PM 42.9994 -76.8808 32° Northeast 231 266 12,100 -1,260 Descending Boston Center
03:52PM 43.0406 -76.8469 31° Northeast 227 261 11,100 -1,440 Descending Boston Center
03:53PM 43.1008 -76.7944 32° Northeast 231 266 9,600 -1,440 Descending Boston Center
03:54PM 43.1558 -76.7728 16° North 239 275 8,400 -1,200 Descending Boston Center
03:54PM 43.1647 -76.7619 42° Northeast 217 250 8,200 -960 Descending Boston Center
03:55PM 43.1983 -76.6958 55° Northeast 210 242 7,200 -1,020 Descending Boston Center
03:56PM 43.1906 -76.6242 98° East 237 273 6,400 -900 Descending Boston Center
03:57PM 43.1833 -76.5408 97° East 225 259 5,600 -780 Descending Boston Center
03:58PM 43.1797 -76.4639 94° East 220 253 5,000 -600 Descending Boston Center
03:58PM 43.1764 -76.4381 100° East 212 244 4,900 -720 Descending Boston Center
03:59PM 43.1722 -76.3836 96° East 212 244 4,300 -840 Descending Boston Center
03:59PM 43.1792 -76.3583 69° East 212 244 4,100 -900 Descending Boston Center
04:00PM 43.1767 -76.3156 95° East 206 237 3,400 -1,140 Descending Boston Center
04:00PM 43.1797 -76.2814 83° East 212 244 3,000 -900 Descending Boston Center
04:01PM 43.1769 -76.2414 95° East 197 227 2,500 -600 Descending Boston Center
04:02PM 43.1583 -76.1747 111° Southeast 160 184 2,000 -780 Descending Boston Center
04:03PM 43.1344 -76.1364 130° Southeast 130 150 1,000 -1,020 Descending Boston Center
04:05PM 43.1112 -76.1063 144° Southeast  Level Estimated
04:12PM 43.1112 -76.1063 144° Southeast  Level Estimated
04:13PM 43.1112 -76.1063 144° Southeast  Level Estimated
04:14PM 43.1112 -76.1063 144° Southeast  Level Estimated
04:15PM 43.1112 -76.1063 144° Southeast  Level Estimated
04:16PM 43.1112 -76.1063 144° Southeast  Level Estimated
04:17PM 43.1112 -76.1063 144° Southeast  Level Estimated
04:18PM 43.1112 -76.1063 144° Southeast  Level Estimated
04:19PM 43.1112 -76.1063 144° Southeast  Level Estimated